Flight Track Log - Related Links

Times and Time Zones

All times are in EDT time to prevent confusion due to time zone crossing. See the KAP927 flight status page for this flight to view local times or setup timezone preferences in your user account.

Time Position Orientation Groundspeed Altitude Reporting Facility
EDT Latitude Longitude Course Direction KTS MPH feet Rate Location/Type
Fri 08:24:26 AM 42.7453 -73.7433 101° East 116 133 1,400  Level Boston Center
Fri 08:25:27 AM 42.7394 -73.7008 101° East 117 135 2,100 744 Climbing Boston Center
Fri 08:26:27 AM 42.7378 -73.6528 93° East 117 135 2,900 700 Climbing Boston Center
Fri 08:27:27 AM 42.7319 -73.6103 101° East 121 139 3,500 595 Climbing Boston Center
Fri 08:28:28 AM 42.7242 -73.5619 102° East 129 148 4,100 541 Climbing Boston Center
Fri 08:29:29 AM 42.7164 -73.5083 101° East 139 160 4,600 545 Climbing Boston Center
Fri 08:30:29 AM 42.7083 -73.4572 102° East 141 162 5,200 496 Climbing Boston Center
Fri 08:31:30 AM 42.7028 -73.4036 98° East 147 169 5,600 347 Climbing Boston Center
Fri 08:32:30 AM 42.6969 -73.3442 98° East 157 181 5,900 298 Climbing Boston Center
Fri 08:33:31 AM 42.6850 -73.2817 105° East 160 184 6,200 347 Climbing Boston Center
Fri 08:34:31 AM 42.6750 -73.2194 102° East 167 192 6,600 347 Climbing Boston Center
Fri 08:35:32 AM 42.6692 -73.1572 97° East 167 192 6,900 214 Climbing Boston Center
Fri 08:36:23 AM 42.6631 -73.1036 99° East 178 205 7,000 268 Climbing Boston Center
Fri 08:37:24 AM 42.6553 -73.0442 100° East 178 205 7,400 248 Climbing Boston Center
Fri 08:38:24 AM 42.6472 -72.9650 98° East 179 206 7,500 99 Climbing Boston Center
Fri 08:39:25 AM 42.6392 -72.9031 100° East 184 212 7,600 50 Climbing Boston Center
Fri 08:40:25 AM 42.6311 -72.8322 99° East 184 212 7,600  Level Boston Center
Fri 08:41:23 AM 42.6208 -72.7589 101° East 184 212 7,600 -51 Level Boston Center
Fri 08:42:23 AM 42.6128 -72.6939 100° East 178 205 7,500 -50 Descending Boston Center
Fri 08:43:24 AM 42.6044 -72.6292 100° East 171 197 7,500 50 Level Boston Center
Fri 08:44:24 AM 42.5961 -72.5697 101° East 171 197 7,600  Climbing Boston Center
Fri 08:45:23 AM 42.5839 -72.5050 104° East 166 191 7,500 -50 Descending Boston Center
Fri 08:46:23 AM 42.5733 -72.4344 101° East 166 191 7,500 50 Level Boston Center
Fri 08:47:24 AM 42.5631 -72.3753 103° East 166 191 7,600  Climbing Boston Center
Fri 08:48:25 AM 42.5503 -72.3075 104° East 167 192 7,500 -50 Descending Boston Center
Fri 08:49:23 AM 42.5419 -72.2569 103° East 161 185 7,500 -100 Level Boston Center
Fri 08:50:25 AM 42.5356 -72.1978 98° East 161 185 7,300 -197 Descending Boston Center
Fri 08:51:25 AM 42.5250 -72.1275 101° East 167 192 7,100 -203 Descending Boston Center
Fri 08:52:23 AM 42.5186 -72.0683 98° East 167 192 6,900 -202 Descending Boston Center
Fri 08:53:24 AM 42.5119 -71.9978 97° East 167 192 6,700 -248 Descending Boston Center
Fri 08:54:24 AM 42.5056 -71.9417 99° East 161 185 6,400 -350 Descending Boston Center
Fri 08:55:24 AM 42.4928 -71.8742 104° East 161 185 6,000 -397 Descending Boston Center
Fri 08:56:25 AM 42.4861 -71.8178 99° East 161 185 5,600 -252 Descending Boston Center
Fri 08:57:23 AM 42.4794 -71.7475 97° East 161 185 5,500 -50 Descending Boston Center
Fri 08:58:24 AM 42.4814 -71.6997 87° East 155 178 5,500 49 Level Boston Center
Fri 08:59:25 AM 42.4850 -71.6350 86° East 155 178 5,600  Climbing Boston Center
Fri 09:00:25 AM 42.4931 -71.5842 78° East 155 178 5,500 -51 Descending Boston Center
Fri 09:01:23 AM 42.5008 -71.5219 80° East 155 178 5,500 -153 Level Boston Center
Fri 09:02:23 AM 42.5108 -71.4683 76° East 155 178 5,200 -347 Descending Boston Center
Fri 09:03:24 AM 42.5208 -71.4006 79° East 163 188 4,800 -347 Descending Boston Center
Fri 09:04:24 AM 42.5306 -71.3497 75° East 163 188 4,500 -149 Descending Boston Center
Fri 09:05:25 AM 42.5406 -71.2875 78° East 163 188 4,500 -182 Level Boston Center
Fri 09:06:36 AM 42.5500 -71.2167 80° East 157 181 4,100 -309 Descending KA90
Fri 09:07:41 AM 42.5667 -71.1500 71° East 158 182 3,800 -288 Descending KA90
Fri 09:08:41 AM 42.5500 -71.1000 114° Southeast 165 190 3,500 -150 Descending KA90
Fri 09:09:41 AM 42.5500 -71.0333 90° East 158 182 3,500  Level KA90
Fri 09:10:42 AM 42.5333 -70.9833 114° Southeast 154 177 3,500 -248 Level KA90
Fri 09:11:42 AM 42.4833 -70.9500 154° Southeast 171 197 3,000 -474 Descending KA90
Fri 09:12:36 AM 42.4500 -70.9333 160° South 174 200 2,600 -421 Descending KA90
Fri 09:13:36 AM 42.4000 -70.9000 154° Southeast 175 201 2,200 -350 Descending KA90
Fri 09:14:36 AM 42.3667 -70.8667 144° Southeast 171 197 1,900 -100 Descending KA90
Fri 09:15:36 AM 42.3333 -70.8333 144° Southeast 159 183 2,000 48 Climbing KA90
Fri 09:16:42 AM 42.2833 -70.8167 166° South 160 184 2,000  Level KA90
Fri 09:17:36 AM 42.2667 -70.8333 217° Southwest 150 173 2,000 -105 Level KA90
Fri 09:18:36 AM 42.3000 -70.8667 324° Northwest 143 165 1,800 -350 Descending KA90
Fri 09:19:36 AM 42.3167 -70.9167 294° West 158 182 1,300 -600 Descending KA90
Fri 09:20:36 AM 42.3500 -70.9667 312° West 142 163 600 -700 Descending KA90
Fri 09:22:00 AM 42.3500 -71.0000 296° West  Level FlightAware Approximate
Fri 09:29:00 AM 42.3630 -71.0064 296° West  Level Estimated

Login

Don't have an account? Register now (free) for customized features, flight alerts, and more!